No.11 Shigefukumaru — JD3995 — position and weather

sailwx.info

Track history (hours):
 
Tides and Currents Weather Stations Pressure Air Temp Water Temp Dewpoint Dewpoint Depression Visibility Wind Speed Wind Dir Waves Ship Positions

No.11 Shigefukumaru

Last reported at 2017-Oct-19 06:15 UTC. Time now 2017-Oct-20 03:09 UTC.
Position N 34°11' E 134°53'.

Length 60 m; draft 3.5 m.

Type: Tanker. MMSI: 431007738.

Date/timePositionNaut miles runAvg speedWind from/ knotsBaromVisibWave heightAir tempDewpointWater temp
2017-Oct-19 06:15N 34°11' E 134°53'311.2
2017-Oct-19 06:00N 34°11' E 134°56'610.9
2017-Oct-19 05:27N 34°10' E 135°03'511.3
2017-Oct-19 05:00N 34°09' E 135°09'3 4.8
2017-Oct-19 04:23N 34°09' E 135°12'0 0.0
2017-Oct-19 03:38N 34°09' E 135°12'0 0.0
2017-Oct-19 03:29N 34°09' E 135°12'0 0.0
2017-Oct-19 02:56N 34°09' E 135°12'0 0.0
2017-Oct-19 02:29N 34°09' E 135°12'0 0.0
2017-Oct-19 01:59N 34°09' E 135°12'0 0.0
2017-Oct-18 04:31N 34°09' E 135°12'0 0.0
2017-Oct-18 04:30N 34°09' E 135°12'2 4.3
2017-Oct-18 04:00N 34°09' E 135°10'212 8.0
2017-Oct-17 01:23N 34°57' E 139°21'4 9.6
2017-Oct-17 01:00N 34°59' E 139°25'5 9.9
2017-Oct-17 00:30N 35°01' E 139°30'510.6
2017-Oct-17 00:00N 35°04' E 139°36'611.6
2017-Oct-16 23:30N 35°07' E 139°42'612.7
2017-Oct-16 23:00N 35°12' E 139°46'612.0
2017-Oct-16 22:30N 35°18' E 139°44'5 9.1
2017-Oct-16 21:58N 35°22' E 139°40'0 0.0
2017-Oct-16 21:28N 35°22' E 139°40'0 0.1
2017-Oct-16 20:58N 35°22' E 139°40'0 0.0
2017-Oct-16 20:28N 35°22' E 139°40'0 0.0
2017-Oct-16 19:58N 35°22' E 139°40'0 0.0
2017-Oct-16 19:28N 35°22' E 139°40'0 0.0
2017-Oct-16 18:58N 35°22' E 139°40'0 0.1
2017-Oct-16 18:28N 35°22' E 139°40'0 0.1
2017-Oct-16 17:58N 35°22' E 139°40'0 0.0
2017-Oct-16 17:28N 35°22' E 139°40'0 0.0
2017-Oct-16 16:58N 35°22' E 139°40'0 0.0
2017-Oct-16 16:28N 35°22' E 139°40'0 0.0
2017-Oct-16 15:58N 35°22' E 139°40'0 0.0
2017-Oct-16 15:28N 35°22' E 139°40'0 0.0
2017-Oct-16 14:58N 35°22' E 139°40'0 0.0
2017-Oct-16 14:28N 35°22' E 139°40'0 0.0
2017-Oct-16 13:25N 35°22' E 139°40'0 0.1
2017-Oct-16 12:58N 35°22' E 139°40'0 0.0
2017-Oct-16 12:28N 35°22' E 139°40'0 0.0
2017-Oct-16 11:58N 35°22' E 139°40'0 0.0
2017-Oct-16 11:28N 35°22' E 139°40'0 0.0
2017-Oct-16 10:58N 35°22' E 139°40'0 0.0
2017-Oct-16 10:28N 35°22' E 139°40'0 0.0
2017-Oct-16 09:58N 35°22' E 139°40'0 0.0
2017-Oct-16 09:28N 35°22' E 139°40'0 0.0
2017-Oct-16 08:58N 35°22' E 139°40'0 0.0
2017-Oct-16 08:28N 35°22' E 139°40'0 0.0
2017-Oct-16 07:58N 35°22' E 139°40'0 0.0
2017-Oct-16 07:28N 35°22' E 139°40'0 0.0
2017-Oct-16 06:58N 35°22' E 139°40'0 0.0
2017-Oct-16 06:25N 35°22' E 139°40'0 0.0
2017-Oct-16 05:58N 35°22' E 139°40'0 0.0
2017-Oct-16 05:28N 35°22' E 139°40'0 0.1
2017-Oct-16 04:58N 35°22' E 139°40'0 0.1
2017-Oct-16 04:30N 35°22' E 139°40'5 9.9
2017-Oct-16 04:00N 35°26' E 139°44'510.6
2017-Oct-16 03:30N 35°30' E 139°47'1 0.3
2017-Oct-15 23:41N 35°31' E 139°46'0 0.0
2017-Oct-15 23:31N 35°31' E 139°46'0 0.0
2017-Oct-15 23:01N 35°31' E 139°46'2 4.9
2017-Oct-15 22:31N 35°29' E 139°48'0 0.9
2017-Oct-15 21:58N 35°29' E 139°48'0 0.0
2017-Oct-15 21:28N 35°29' E 139°48'0 0.0
2017-Oct-15 20:58N 35°29' E 139°48'0 0.0
2017-Oct-15 20:28N 35°29' E 139°48'0 0.0
2017-Oct-15 19:58N 35°29' E 139°48'0 0.0
2017-Oct-15 19:28N 35°29' E 139°48'0 0.0
2017-Oct-15 18:58N 35°29' E 139°48'0 0.0
2017-Oct-15 18:28N 35°29' E 139°48'0 0.0
2017-Oct-15 17:58N 35°29' E 139°48'0 0.0
2017-Oct-15 17:28N 35°29' E 139°48'0 0.0
2017-Oct-15 16:58N 35°29' E 139°48'0 0.0
2017-Oct-15 16:28N 35°29' E 139°48'0 0.0
2017-Oct-15 15:58N 35°29' E 139°48'0 0.0
2017-Oct-15 15:28N 35°29' E 139°48'0 0.0
2017-Oct-15 14:58N 35°29' E 139°48'0 0.0
2017-Oct-15 13:58N 35°29' E 139°48'0 0.0
2017-Oct-15 13:28N 35°29' E 139°48'0 0.0
2017-Oct-15 12:58N 35°29' E 139°48'0 0.0
2017-Oct-15 12:28N 35°29' E 139°48'0 0.0
2017-Oct-15 11:58N 35°29' E 139°48'0 0.0
2017-Oct-15 11:28N 35°29' E 139°48'0 0.0
2017-Oct-15 10:58N 35°29' E 139°48'0 0.0
2017-Oct-15 10:28N 35°29' E 139°48'0 0.0
2017-Oct-15 09:58N 35°29' E 139°48'0 0.0
2017-Oct-15 09:28N 35°29' E 139°48'0 0.0
2017-Oct-15 08:58N 35°29' E 139°48'0 0.0
2017-Oct-15 08:28N 35°29' E 139°48'0 0.0
2017-Oct-15 07:55N 35°29' E 139°48'0 0.0
2017-Oct-15 07:28N 35°29' E 139°48'0 0.0
2017-Oct-15 07:00N 35°29' E 139°48'0 0.0
2017-Oct-15 06:31N 35°29' E 139°48'0 0.0
2017-Oct-15 06:01N 35°29' E 139°48'0 0.0
2017-Oct-15 05:31N 35°29' E 139°48'0 0.0
2017-Oct-15 05:00N 35°29' E 139°48'0 0.0
2017-Oct-15 04:30N 35°29' E 139°48'1 2.1
2017-Oct-15 04:00N 35°28' E 139°47'510.4
2017-Oct-15 03:30N 35°25' E 139°42'3 6.9
2017-Oct-15 03:00N 35°22' E 139°40'0 0.0
2017-Oct-15 02:30N 35°22' E 139°40'0 0.0
2017-Oct-15 02:00N 35°22' E 139°40'0 0.0
2017-Oct-15 01:30N 35°22' E 139°40'0 0.0
2017-Oct-15 01:00N 35°22' E 139°40'0 0.0
2017-Oct-15 00:30N 35°22' E 139°40'0 0.0
2017-Oct-15 00:00N 35°22' E 139°40'0 0.0
2017-Oct-14 23:30N 35°22' E 139°40'0 0.0
2017-Oct-14 23:00N 35°22' E 139°40'0 0.0
2017-Oct-14 22:30N 35°22' E 139°40'0 0.0
2017-Oct-14 22:00N 35°22' E 139°40'0 0.0
2017-Oct-14 21:24N 35°22' E 139°40'0 0.0
2017-Oct-14 21:00N 35°22' E 139°40'0 0.0
2017-Oct-14 20:30N 35°22' E 139°40'0 0.0
2017-Oct-14 20:00N 35°22' E 139°40'0 0.0
2017-Oct-14 19:30N 35°22' E 139°40'0 0.0
2017-Oct-14 19:00N 35°22' E 139°40'0 0.0
2017-Oct-14 18:27N 35°22' E 139°40'0 0.0
2017-Oct-14 18:00N 35°22' E 139°40'0 0.0
2017-Oct-14 17:30N 35°22' E 139°40'0 0.0
2017-Oct-14 17:00N 35°22' E 139°40'0 0.0
2017-Oct-14 16:27N 35°22' E 139°40'0 0.0
2017-Oct-14 16:00N 35°22' E 139°40'0 0.0
2017-Oct-14 15:30N 35°22' E 139°40'0 0.0
2017-Oct-14 15:00N 35°22' E 139°40'0 0.0
2017-Oct-14 14:30N 35°22' E 139°40'0 0.0
2017-Oct-14 13:57N 35°22' E 139°40'0 0.0
2017-Oct-14 13:30N 35°22' E 139°40'0 0.0
2017-Oct-14 13:00N 35°22' E 139°40'0 0.0
2017-Oct-14 12:30N 35°22' E 139°40'0 0.0
2017-Oct-14 12:00N 35°22' E 139°40'0 0.0
2017-Oct-14 11:30N 35°22' E 139°40'0 0.0
2017-Oct-14 10:57N 35°22' E 139°40'0 0.0
2017-Oct-14 10:30N 35°22' E 139°40'0 0.0
2017-Oct-14 10:00N 35°22' E 139°40'0 0.0
2017-Oct-14 09:30N 35°22' E 139°40'0 0.0
2017-Oct-14 09:00N 35°22' E 139°40'0 0.0
2017-Oct-14 08:30N 35°22' E 139°40'0 0.0
2017-Oct-14 08:00N 35°22' E 139°40'0 0.0
2017-Oct-14 07:30N 35°22' E 139°40'0 0.0
2017-Oct-14 07:00N 35°22' E 139°40'0 0.0
2017-Oct-14 06:30N 35°22' E 139°40'0 0.0
2017-Oct-14 06:00N 35°22' E 139°40'0 0.0
2017-Oct-14 05:30N 35°22' E 139°40'0 0.0
2017-Oct-14 05:00N 35°22' E 139°40'0 0.0
2017-Oct-14 04:29N 35°22' E 139°40'0 0.0
2017-Oct-14 03:59N 35°22' E 139°40'0 0.0
2017-Oct-14 03:29N 35°22' E 139°40'0 0.0
2017-Oct-14 02:59N 35°22' E 139°40'0 0.0
2017-Oct-14 02:29N 35°22' E 139°40'0 0.0
2017-Oct-14 01:56N 35°22' E 139°40'0 0.0
2017-Oct-14 01:29N 35°22' E 139°40'0 0.0
2017-Oct-14 00:56N 35°22' E 139°40'0 0.0
2017-Oct-14 00:29N 35°22' E 139°40'0 0.0
2017-Oct-13 23:56N 35°22' E 139°40'0 0.0
2017-Oct-13 23:26N 35°22' E 139°40'0 0.0
2017-Oct-13 22:59N 35°22' E 139°40'0 0.0
2017-Oct-13 22:29N 35°22' E 139°40'0 0.0
2017-Oct-13 21:59N 35°22' E 139°40'0 0.1
2017-Oct-13 21:29N 35°22' E 139°40'0 0.1
2017-Oct-13 20:56N 35°22' E 139°40'0 0.0
2017-Oct-13 20:29N 35°22' E 139°40'0 0.0
2017-Oct-13 19:59N 35°22' E 139°40'0 0.0
2017-Oct-13 19:29N 35°22' E 139°40'0 0.0
2017-Oct-13 18:56N 35°22' E 139°40'0 0.0
2017-Oct-13 18:29N 35°22' E 139°40'0 0.0
2017-Oct-13 17:59N 35°22' E 139°40'0 0.0
2017-Oct-13 17:29N 35°22' E 139°40'0 0.0
2017-Oct-13 16:59N 35°22' E 139°40'0 0.0
2017-Oct-13 16:29N 35°22' E 139°40'0 0.0
2017-Oct-13 15:59N 35°22' E 139°40'0 0.0
2017-Oct-13 15:29N 35°22' E 139°40'0 0.0
2017-Oct-13 14:59N 35°22' E 139°40'0 0.0
2017-Oct-13 14:29N 35°22' E 139°40'0 0.0
2017-Oct-13 13:59N 35°22' E 139°40'0 0.0
2017-Oct-13 13:26N 35°22' E 139°40'0 0.0
2017-Oct-13 12:59N 35°22' E 139°40'0 0.0
2017-Oct-13 12:29N 35°22' E 139°40'0 0.0
2017-Oct-13 11:59N 35°22' E 139°40'0 0.0
2017-Oct-13 11:29N 35°22' E 139°40'0 0.0
2017-Oct-13 10:59N 35°22' E 139°40'0 0.0
2017-Oct-13 10:29N 35°22' E 139°40'0 0.0
2017-Oct-13 09:59N 35°22' E 139°40'0 0.0
2017-Oct-13 09:29N 35°22' E 139°40'0 0.0
2017-Oct-13 08:59N 35°22' E 139°40'0 0.0
2017-Oct-13 08:29N 35°22' E 139°40'0 0.0
2017-Oct-13 07:59N 35°22' E 139°40'0 0.0
2017-Oct-13 07:29N 35°22' E 139°40'0 0.0
2017-Oct-13 06:59N 35°22' E 139°40'0 0.0
2017-Oct-13 06:29N 35°22' E 139°40'0 0.0
2017-Oct-13 05:59N 35°22' E 139°40'0 0.0
2017-Oct-13 05:29N 35°22' E 139°40'0 0.1
2017-Oct-13 04:59N 35°22' E 139°40'0 0.1
2017-Oct-13 04:29N 35°22' E 139°40'0 0.1
2017-Oct-13 03:59N 35°22' E 139°40'0 0.1
2017-Oct-13 03:29N 35°22' E 139°40'0 0.0
2017-Oct-13 02:59N 35°22' E 139°40'0 0.1
2017-Oct-13 02:29N 35°22' E 139°40'0 0.0
2017-Oct-13 01:56N 35°22' E 139°40'0 0.0
2017-Oct-13 01:29N 35°22' E 139°40'0 0.0
2017-Oct-13 00:59N 35°22' E 139°40'0 0.1
2017-Oct-13 00:29N 35°22' E 139°40'0 0.0
2017-Oct-12 23:59N 35°22' E 139°40'0 0.0
2017-Oct-12 23:29N 35°22' E 139°40'0 0.0
2017-Oct-12 22:59N 35°22' E 139°40'0 0.0
2017-Oct-12 22:29N 35°22' E 139°40'0 0.0
2017-Oct-12 21:56N 35°22' E 139°40'0 0.0
2017-Oct-12 21:29N 35°22' E 139°40'0 0.0
2017-Oct-12 20:59N 35°22' E 139°40'0 0.1
2017-Oct-12 20:30N 35°22' E 139°40'5 9.3
2017-Oct-12 20:00N 35°19' E 139°44'510.4
2017-Oct-12 19:30N 35°14' E 139°47'510.0
2017-Oct-12 19:00N 35°09' E 139°45'5 9.9
2017-Oct-12 18:30N 35°05' E 139°43'510.5
2017-Oct-12 18:00N 35°01' E 139°38'225 5.3
2017-Oct-10 23:56N 34°09' E 135°12'2 4.2
2017-Oct-10 23:30N 34°09' E 135°10'1 1.6
2017-Oct-10 22:58N 34°09' E 135°09'0 0.0
2017-Oct-10 22:25N 34°09' E 135°09'0 0.0
2017-Oct-10 21:52N 34°09' E 135°09'0 0.0
2017-Oct-10 21:28N 34°09' E 135°09'0 0.0
2017-Oct-10 20:58N 34°09' E 135°09'0 0.0
2017-Oct-10 20:22N 34°09' E 135°09'0 0.0
2017-Oct-10 19:58N 34°09' E 135°09'0 0.0
2017-Oct-10 19:29N 34°09' E 135°09'0 0.0
2017-Oct-10 18:59N 34°09' E 135°09'0 0.0
2017-Oct-10 18:28N 34°09' E 135°09'0 0.0
2017-Oct-10 17:58N 34°09' E 135°09'0 0.0
2017-Oct-10 17:19N 34°09' E 135°09'0 0.0
2017-Oct-10 16:59N 34°09' E 135°09'0 0.0
2017-Oct-10 16:28N 34°09' E 135°09'0 0.0
2017-Oct-10 15:58N 34°09' E 135°09'0 0.0
2017-Oct-10 15:28N 34°09' E 135°09'0 0.0
2017-Oct-10 14:58N 34°09' E 135°09'0 0.0
2017-Oct-10 13:59N 34°09' E 135°09'0 0.0
2017-Oct-10 13:28N 34°09' E 135°09'0 0.0
2017-Oct-10 12:52N 34°09' E 135°09'0 0.0
2017-Oct-10 12:25N 34°09' E 135°09'0 0.0
2017-Oct-10 11:58N 34°09' E 135°09'0 0.0
2017-Oct-10 11:25N 34°09' E 135°09'0 0.0
2017-Oct-10 10:58N 34°09' E 135°09'0 0.0
2017-Oct-10 10:28N 34°09' E 135°09'0 0.1
2017-Oct-10 09:58N 34°09' E 135°09'0 0.1
2017-Oct-10 09:25N 34°09' E 135°10'0 0.0
2017-Oct-10 08:37N 34°09' E 135°10'0 0.0
2017-Oct-10 08:25N 34°09' E 135°10'0 0.0
2017-Oct-10 07:58N 34°09' E 135°10'0 0.1
2017-Oct-10 07:30N 34°09' E 135°09'510.8
2017-Oct-10 07:00N 34°09' E 135°03'  
Track history (hours):
 
Tides and Currents Weather Stations Pressure Air Temp Water Temp Dewpoint Dewpoint Depression Visibility Wind Speed Wind Dir Waves Ship Positions

No.11 Shigefukumaru

Last reported at 2017-Oct-19 06:15 UTC. Time now 2017-Oct-20 03:09 UTC.
Position N 34°11' E 134°53'.

Length 60 m; draft 3.5 m.

Type: Tanker. MMSI: 431007738.

Date/timePositionNaut miles runAvg speedWind from/ knotsBaromVisibWave heightAir tempDewpointWater temp
2017-Oct-19 06:15N 34°11' E 134°53'311.2
2017-Oct-19 06:00N 34°11' E 134°56'610.9
2017-Oct-19 05:27N 34°10' E 135°03'511.3
2017-Oct-19 05:00N 34°09' E 135°09'3 4.8
2017-Oct-19 04:23N 34°09' E 135°12'0 0.0
2017-Oct-19 03:38N 34°09' E 135°12'0 0.0
2017-Oct-19 03:29N 34°09' E 135°12'0 0.0
2017-Oct-19 02:56N 34°09' E 135°12'0 0.0
2017-Oct-19 02:29N 34°09' E 135°12'0 0.0
2017-Oct-19 01:59N 34°09' E 135°12'0 0.0
2017-Oct-18 04:31N 34°09' E 135°12'0 0.0
2017-Oct-18 04:30N 34°09' E 135°12'2 4.3
2017-Oct-18 04:00N 34°09' E 135°10'212 8.0
2017-Oct-17 01:23N 34°57' E 139°21'4 9.6
2017-Oct-17 01:00N 34°59' E 139°25'5 9.9
2017-Oct-17 00:30N 35°01' E 139°30'510.6
2017-Oct-17 00:00N 35°04' E 139°36'611.6
2017-Oct-16 23:30N 35°07' E 139°42'612.7
2017-Oct-16 23:00N 35°12' E 139°46'612.0
2017-Oct-16 22:30N 35°18' E 139°44'5 9.1
2017-Oct-16 21:58N 35°22' E 139°40'0 0.0
2017-Oct-16 21:28N 35°22' E 139°40'0 0.1
2017-Oct-16 20:58N 35°22' E 139°40'0 0.0
2017-Oct-16 20:28N 35°22' E 139°40'0 0.0
2017-Oct-16 19:58N 35°22' E 139°40'0 0.0
2017-Oct-16 19:28N 35°22' E 139°40'0 0.0
2017-Oct-16 18:58N 35°22' E 139°40'0 0.1
2017-Oct-16 18:28N 35°22' E 139°40'0 0.1
2017-Oct-16 17:58N 35°22' E 139°40'0 0.0
2017-Oct-16 17:28N 35°22' E 139°40'0 0.0
2017-Oct-16 16:58N 35°22' E 139°40'0 0.0
2017-Oct-16 16:28N 35°22' E 139°40'0 0.0
2017-Oct-16 15:58N 35°22' E 139°40'0 0.0
2017-Oct-16 15:28N 35°22' E 139°40'0 0.0
2017-Oct-16 14:58N 35°22' E 139°40'0 0.0
2017-Oct-16 14:28N 35°22' E 139°40'0 0.0
2017-Oct-16 13:25N 35°22' E 139°40'0 0.1
2017-Oct-16 12:58N 35°22' E 139°40'0 0.0
2017-Oct-16 12:28N 35°22' E 139°40'0 0.0
2017-Oct-16 11:58N 35°22' E 139°40'0 0.0
2017-Oct-16 11:28N 35°22' E 139°40'0 0.0
2017-Oct-16 10:58N 35°22' E 139°40'0 0.0
2017-Oct-16 10:28N 35°22' E 139°40'0 0.0
2017-Oct-16 09:58N 35°22' E 139°40'0 0.0
2017-Oct-16 09:28N 35°22' E 139°40'0 0.0
2017-Oct-16 08:58N 35°22' E 139°40'0 0.0
2017-Oct-16 08:28N 35°22' E 139°40'0 0.0
2017-Oct-16 07:58N 35°22' E 139°40'0 0.0
2017-Oct-16 07:28N 35°22' E 139°40'0 0.0
2017-Oct-16 06:58N 35°22' E 139°40'0 0.0
2017-Oct-16 06:25N 35°22' E 139°40'0 0.0
2017-Oct-16 05:58N 35°22' E 139°40'0 0.0
2017-Oct-16 05:28N 35°22' E 139°40'0 0.1
2017-Oct-16 04:58N 35°22' E 139°40'0 0.1
2017-Oct-16 04:30N 35°22' E 139°40'5 9.9
2017-Oct-16 04:00N 35°26' E 139°44'510.6
2017-Oct-16 03:30N 35°30' E 139°47'1 0.3
2017-Oct-15 23:41N 35°31' E 139°46'0 0.0
2017-Oct-15 23:31N 35°31' E 139°46'0 0.0
2017-Oct-15 23:01N 35°31' E 139°46'2 4.9
2017-Oct-15 22:31N 35°29' E 139°48'0 0.9
2017-Oct-15 21:58N 35°29' E 139°48'0 0.0
2017-Oct-15 21:28N 35°29' E 139°48'0 0.0
2017-Oct-15 20:58N 35°29' E 139°48'0 0.0
2017-Oct-15 20:28N 35°29' E 139°48'0 0.0
2017-Oct-15 19:58N 35°29' E 139°48'0 0.0
2017-Oct-15 19:28N 35°29' E 139°48'0 0.0
2017-Oct-15 18:58N 35°29' E 139°48'0 0.0
2017-Oct-15 18:28N 35°29' E 139°48'0 0.0
2017-Oct-15 17:58N 35°29' E 139°48'0 0.0
2017-Oct-15 17:28N 35°29' E 139°48'0 0.0
2017-Oct-15 16:58N 35°29' E 139°48'0 0.0
2017-Oct-15 16:28N 35°29' E 139°48'0 0.0
2017-Oct-15 15:58N 35°29' E 139°48'0 0.0
2017-Oct-15 15:28N 35°29' E 139°48'0 0.0
2017-Oct-15 14:58N 35°29' E 139°48'0 0.0
2017-Oct-15 13:58N 35°29' E 139°48'0 0.0
2017-Oct-15 13:28N 35°29' E 139°48'0 0.0
2017-Oct-15 12:58N 35°29' E 139°48'0 0.0
2017-Oct-15 12:28N 35°29' E 139°48'0 0.0
2017-Oct-15 11:58N 35°29' E 139°48'0 0.0
2017-Oct-15 11:28N 35°29' E 139°48'0 0.0
2017-Oct-15 10:58N 35°29' E 139°48'0 0.0
2017-Oct-15 10:28N 35°29' E 139°48'0 0.0
2017-Oct-15 09:58N 35°29' E 139°48'0 0.0
2017-Oct-15 09:28N 35°29' E 139°48'0 0.0
2017-Oct-15 08:58N 35°29' E 139°48'0 0.0
2017-Oct-15 08:28N 35°29' E 139°48'0 0.0
2017-Oct-15 07:55N 35°29' E 139°48'0 0.0
2017-Oct-15 07:28N 35°29' E 139°48'0 0.0
2017-Oct-15 07:00N 35°29' E 139°48'0 0.0
2017-Oct-15 06:31N 35°29' E 139°48'0 0.0
2017-Oct-15 06:01N 35°29' E 139°48'0 0.0
2017-Oct-15 05:31N 35°29' E 139°48'0 0.0
2017-Oct-15 05:00N 35°29' E 139°48'0 0.0
2017-Oct-15 04:30N 35°29' E 139°48'1 2.1
2017-Oct-15 04:00N 35°28' E 139°47'510.4
2017-Oct-15 03:30N 35°25' E 139°42'3 6.9
2017-Oct-15 03:00N 35°22' E 139°40'0 0.0
2017-Oct-15 02:30N 35°22' E 139°40'0 0.0
2017-Oct-15 02:00N 35°22' E 139°40'0 0.0
2017-Oct-15 01:30N 35°22' E 139°40'0 0.0
2017-Oct-15 01:00N 35°22' E 139°40'0 0.0
2017-Oct-15 00:30N 35°22' E 139°40'0 0.0
2017-Oct-15 00:00N 35°22' E 139°40'0 0.0
2017-Oct-14 23:30N 35°22' E 139°40'0 0.0
2017-Oct-14 23:00N 35°22' E 139°40'0 0.0
2017-Oct-14 22:30N 35°22' E 139°40'0 0.0
2017-Oct-14 22:00N 35°22' E 139°40'0 0.0
2017-Oct-14 21:24N 35°22' E 139°40'0 0.0
2017-Oct-14 21:00N 35°22' E 139°40'0 0.0
2017-Oct-14 20:30N 35°22' E 139°40'0 0.0
2017-Oct-14 20:00N 35°22' E 139°40'0 0.0
2017-Oct-14 19:30N 35°22' E 139°40'0 0.0
2017-Oct-14 19:00N 35°22' E 139°40'0 0.0
2017-Oct-14 18:27N 35°22' E 139°40'0 0.0
2017-Oct-14 18:00N 35°22' E 139°40'0 0.0
2017-Oct-14 17:30N 35°22' E 139°40'0 0.0
2017-Oct-14 17:00N 35°22' E 139°40'0 0.0
2017-Oct-14 16:27N 35°22' E 139°40'0 0.0
2017-Oct-14 16:00N 35°22' E 139°40'0 0.0
2017-Oct-14 15:30N 35°22' E 139°40'0 0.0
2017-Oct-14 15:00N 35°22' E 139°40'0 0.0
2017-Oct-14 14:30N 35°22' E 139°40'0 0.0
2017-Oct-14 13:57N 35°22' E 139°40'0 0.0
2017-Oct-14 13:30N 35°22' E 139°40'0 0.0
2017-Oct-14 13:00N 35°22' E 139°40'0 0.0
2017-Oct-14 12:30N 35°22' E 139°40'0 0.0
2017-Oct-14 12:00N 35°22' E 139°40'0 0.0
2017-Oct-14 11:30N 35°22' E 139°40'0 0.0
2017-Oct-14 10:57N 35°22' E 139°40'0 0.0
2017-Oct-14 10:30N 35°22' E 139°40'0 0.0
2017-Oct-14 10:00N 35°22' E 139°40'0 0.0
2017-Oct-14 09:30N 35°22' E 139°40'0 0.0
2017-Oct-14 09:00N 35°22' E 139°40'0 0.0
2017-Oct-14 08:30N 35°22' E 139°40'0 0.0
2017-Oct-14 08:00N 35°22' E 139°40'0 0.0
2017-Oct-14 07:30N 35°22' E 139°40'0 0.0
2017-Oct-14 07:00N 35°22' E 139°40'0 0.0
2017-Oct-14 06:30N 35°22' E 139°40'0 0.0
2017-Oct-14 06:00N 35°22' E 139°40'0 0.0
2017-Oct-14 05:30N 35°22' E 139°40'0 0.0
2017-Oct-14 05:00N 35°22' E 139°40'0 0.0
2017-Oct-14 04:29N 35°22' E 139°40'0 0.0
2017-Oct-14 03:59N 35°22' E 139°40'0 0.0
2017-Oct-14 03:29N 35°22' E 139°40'0 0.0
2017-Oct-14 02:59N 35°22' E 139°40'0 0.0
2017-Oct-14 02:29N 35°22' E 139°40'0 0.0
2017-Oct-14 01:56N 35°22' E 139°40'0 0.0
2017-Oct-14 01:29N 35°22' E 139°40'0 0.0
2017-Oct-14 00:56N 35°22' E 139°40'0 0.0
2017-Oct-14 00:29N 35°22' E 139°40'0 0.0
2017-Oct-13 23:56N 35°22' E 139°40'0 0.0
2017-Oct-13 23:26N 35°22' E 139°40'0 0.0
2017-Oct-13 22:59N 35°22' E 139°40'0 0.0
2017-Oct-13 22:29N 35°22' E 139°40'0 0.0
2017-Oct-13 21:59N 35°22' E 139°40'0 0.1
2017-Oct-13 21:29N 35°22' E 139°40'0 0.1
2017-Oct-13 20:56N 35°22' E 139°40'0 0.0
2017-Oct-13 20:29N 35°22' E 139°40'0 0.0
2017-Oct-13 19:59N 35°22' E 139°40'0 0.0
2017-Oct-13 19:29N 35°22' E 139°40'0 0.0
2017-Oct-13 18:56N 35°22' E 139°40'0 0.0
2017-Oct-13 18:29N 35°22' E 139°40'0 0.0
2017-Oct-13 17:59N 35°22' E 139°40'0 0.0
2017-Oct-13 17:29N 35°22' E 139°40'0 0.0
2017-Oct-13 16:59N 35°22' E 139°40'0 0.0
2017-Oct-13 16:29N 35°22' E 139°40'0 0.0
2017-Oct-13 15:59N 35°22' E 139°40'0 0.0
2017-Oct-13 15:29N 35°22' E 139°40'0 0.0
2017-Oct-13 14:59N 35°22' E 139°40'0 0.0
2017-Oct-13 14:29N 35°22' E 139°40'0 0.0
2017-Oct-13 13:59N 35°22' E 139°40'0 0.0
2017-Oct-13 13:26N 35°22' E 139°40'0 0.0
2017-Oct-13 12:59N 35°22' E 139°40'0 0.0
2017-Oct-13 12:29N 35°22' E 139°40'0 0.0
2017-Oct-13 11:59N 35°22' E 139°40'0 0.0
2017-Oct-13 11:29N 35°22' E 139°40'0 0.0
2017-Oct-13 10:59N 35°22' E 139°40'0 0.0
2017-Oct-13 10:29N 35°22' E 139°40'0 0.0
2017-Oct-13 09:59N 35°22' E 139°40'0 0.0
2017-Oct-13 09:29N 35°22' E 139°40'0 0.0
2017-Oct-13 08:59N 35°22' E 139°40'0 0.0
2017-Oct-13 08:29N 35°22' E 139°40'0 0.0
2017-Oct-13 07:59N 35°22' E 139°40'0 0.0
2017-Oct-13 07:29N 35°22' E 139°40'0 0.0
2017-Oct-13 06:59N 35°22' E 139°40'0 0.0
2017-Oct-13 06:29N 35°22' E 139°40'0 0.0
2017-Oct-13 05:59N 35°22' E 139°40'0 0.0
2017-Oct-13 05:29N 35°22' E 139°40'0 0.1
2017-Oct-13 04:59N 35°22' E 139°40'0 0.1
2017-Oct-13 04:29N 35°22' E 139°40'0 0.1
2017-Oct-13 03:59N 35°22' E 139°40'0 0.1
2017-Oct-13 03:29N 35°22' E 139°40'0 0.0
2017-Oct-13 02:59N 35°22' E 139°40'0 0.1
2017-Oct-13 02:29N 35°22' E 139°40'0 0.0
2017-Oct-13 01:56N 35°22' E 139°40'0 0.0
2017-Oct-13 01:29N 35°22' E 139°40'0 0.0
2017-Oct-13 00:59N 35°22' E 139°40'0 0.1
2017-Oct-13 00:29N 35°22' E 139°40'0 0.0
2017-Oct-12 23:59N 35°22' E 139°40'0 0.0
2017-Oct-12 23:29N 35°22' E 139°40'0 0.0
2017-Oct-12 22:59N 35°22' E 139°40'0 0.0
2017-Oct-12 22:29N 35°22' E 139°40'0 0.0
2017-Oct-12 21:56N 35°22' E 139°40'0 0.0
2017-Oct-12 21:29N 35°22' E 139°40'0 0.0
2017-Oct-12 20:59N 35°22' E 139°40'0 0.1
2017-Oct-12 20:30N 35°22' E 139°40'5 9.3
2017-Oct-12 20:00N 35°19' E 139°44'510.4
2017-Oct-12 19:30N 35°14' E 139°47'510.0
2017-Oct-12 19:00N 35°09' E 139°45'5 9.9
2017-Oct-12 18:30N 35°05' E 139°43'510.5
2017-Oct-12 18:00N 35°01' E 139°38'225 5.3
2017-Oct-10 23:56N 34°09' E 135°12'2 4.2
2017-Oct-10 23:30N 34°09' E 135°10'1 1.6
2017-Oct-10 22:58N 34°09' E 135°09'0 0.0
2017-Oct-10 22:25N 34°09' E 135°09'0 0.0
2017-Oct-10 21:52N 34°09' E 135°09'0 0.0
2017-Oct-10 21:28N 34°09' E 135°09'0 0.0
2017-Oct-10 20:58N 34°09' E 135°09'0 0.0
2017-Oct-10 20:22N 34°09' E 135°09'0 0.0
2017-Oct-10 19:58N 34°09' E 135°09'0 0.0
2017-Oct-10 19:29N 34°09' E 135°09'0 0.0
2017-Oct-10 18:59N 34°09' E 135°09'0 0.0
2017-Oct-10 18:28N 34°09' E 135°09'0 0.0
2017-Oct-10 17:58N 34°09' E 135°09'0 0.0
2017-Oct-10 17:19N 34°09' E 135°09'0 0.0
2017-Oct-10 16:59N 34°09' E 135°09'0 0.0
2017-Oct-10 16:28N 34°09' E 135°09'0 0.0
2017-Oct-10 15:58N 34°09' E 135°09'0 0.0
2017-Oct-10 15:28N 34°09' E 135°09'0 0.0
2017-Oct-10 14:58N 34°09' E 135°09'0 0.0
2017-Oct-10 13:59N 34°09' E 135°09'0 0.0
2017-Oct-10 13:28N 34°09' E 135°09'0 0.0
2017-Oct-10 12:52N 34°09' E 135°09'0 0.0
2017-Oct-10 12:25N 34°09' E 135°09'0 0.0
2017-Oct-10 11:58N 34°09' E 135°09'0 0.0
2017-Oct-10 11:25N 34°09' E 135°09'0 0.0
2017-Oct-10 10:58N 34°09' E 135°09'0 0.0
2017-Oct-10 10:28N 34°09' E 135°09'0 0.1
2017-Oct-10 09:58N 34°09' E 135°09'0 0.1
2017-Oct-10 09:25N 34°09' E 135°10'0 0.0
2017-Oct-10 08:37N 34°09' E 135°10'0 0.0
2017-Oct-10 08:25N 34°09' E 135°10'0 0.0
2017-Oct-10 07:58N 34°09' E 135°10'0 0.1
2017-Oct-10 07:30N 34°09' E 135°09'510.8
2017-Oct-10 07:00N 34°09' E 135°03'  

Dump ship's entire track history